createdAt,value
2019-04-27T00:01:33.687Z,6.17
2019-04-27T00:04:00.300Z,4.92
2019-04-27T00:06:26.873Z,6.22
2019-04-27T00:08:53.608Z,5.67
2019-04-27T00:11:20.242Z,5.00
2019-04-27T00:13:46.855Z,8.30
2019-04-27T00:16:13.533Z,6.08
2019-04-27T00:18:40.203Z,6.25
2019-04-27T00:21:06.807Z,5.40
2019-04-27T00:23:34.037Z,7.87
2019-04-27T00:26:00.795Z,8.28
2019-04-27T00:28:27.451Z,4.10
2019-04-27T00:30:54.067Z,7.50
2019-04-27T00:33:20.648Z,8.15
2019-04-27T00:35:47.242Z,6.62
2019-04-27T00:38:13.844Z,5.05
2019-04-27T00:40:40.456Z,6.42
2019-04-27T00:43:07.048Z,6.50
2019-04-27T00:45:33.654Z,6.72
2019-04-27T00:48:00.229Z,5.05
2019-04-27T00:50:26.824Z,3.90
2019-04-27T00:52:53.409Z,4.20
2019-04-27T00:55:20.016Z,5.25
2019-04-27T00:57:46.592Z,4.35
2019-04-27T01:00:13.508Z,5.35
2019-04-27T01:02:40.152Z,5.40
2019-04-27T01:05:06.746Z,6.03
2019-04-27T01:07:33.473Z,4.17
2019-04-27T01:10:00.110Z,4.83
2019-04-27T01:12:26.678Z,3.83
2019-04-27T01:14:53.607Z,4.28
2019-04-27T01:17:20.259Z,5.40
2019-04-27T01:19:46.836Z,6.12
2019-04-27T01:22:13.444Z,4.55
2019-04-27T01:24:40.013Z,4.60
2019-04-27T01:27:06.629Z,7.25
2019-04-27T01:29:33.202Z,7.08
2019-04-27T01:31:59.790Z,5.85
2019-04-27T01:34:26.371Z,5.17
2019-04-27T01:36:52.970Z,5.62
2019-04-27T01:39:19.540Z,6.10
2019-04-27T01:41:46.157Z,5.20
2019-04-27T01:44:12.734Z,5.85
2019-04-27T01:46:39.702Z,5.37
2019-04-27T01:49:06.397Z,6.03
2019-04-27T01:51:33.015Z,5.30
2019-04-27T01:53:59.594Z,5.65
2019-04-27T01:56:26.210Z,7.33
2019-04-27T01:58:52.791Z,5.05
2019-04-27T02:01:19.415Z,4.90
2019-04-27T02:03:45.984Z,5.60
2019-04-27T02:06:12.586Z,4.45
2019-04-27T02:08:40.344Z,8.03
2019-04-27T02:11:07.049Z,5.17
2019-04-27T02:13:33.618Z,5.37
2019-04-27T02:16:00.234Z,5.30
2019-04-27T02:18:35.621Z,5.35
2019-04-27T02:20:55.160Z,3.70
2019-04-27T02:23:21.752Z,4.00
2019-04-27T02:25:49.684Z,5.75
2019-04-27T02:28:16.511Z,4.70
2019-04-27T02:30:43.102Z,6.00
2019-04-27T02:33:12.657Z,3.77
2019-04-27T02:35:39.113Z,4.10
2019-04-27T02:38:06.307Z,7.15
2019-04-27T02:40:32.892Z,3.92
2019-04-27T02:43:00.055Z,5.28
2019-04-27T02:45:26.672Z,4.72
2019-04-27T02:47:53.268Z,5.30
2019-04-27T02:50:19.850Z,5.00
2019-04-27T02:52:46.449Z,5.65
2019-04-27T02:55:13.029Z,4.70
2019-04-27T02:57:40.006Z,5.55
2019-04-27T03:00:06.646Z,5.62
2019-04-27T03:02:33.246Z,4.60
2019-04-27T03:05:00.628Z,5.92
2019-04-27T03:07:29.799Z,6.15
2019-04-27T03:09:55.815Z,5.70
2019-04-27T03:12:22.428Z,5.22
2019-04-27T03:14:50.629Z,5.83
2019-04-27T03:17:20.018Z,5.90
2019-04-27T03:19:45.691Z,5.70
2019-04-27T03:22:12.290Z,5.40
2019-04-27T03:24:39.424Z,4.22
2019-04-27T03:27:06.183Z,6.53
2019-04-27T03:29:32.793Z,6.42
2019-04-27T03:32:01.911Z,6.12
2019-04-27T03:34:31.988Z,5.47
2019-04-27T03:36:56.002Z,4.58
2019-04-27T03:39:22.608Z,5.92
2019-04-27T03:41:52.287Z,5.35
2019-04-27T03:44:19.196Z,4.85
2019-04-27T03:46:45.975Z,6.22
2019-04-27T03:49:27.981Z,6.42
2019-04-27T03:51:40.930Z,5.05
2019-04-27T03:54:07.595Z,5.75
2019-04-27T03:56:34.167Z,5.97
2019-04-27T03:59:00.777Z,4.10
2019-04-27T04:01:27.356Z,4.10
2019-04-27T04:03:53.949Z,4.92
2019-04-27T04:06:20.531Z,5.95
2019-04-27T04:08:49.866Z,4.67
2019-04-27T04:11:15.431Z,4.83
2019-04-27T04:13:42.032Z,4.42
2019-04-27T04:16:10.732Z,3.90
2019-04-27T04:18:36.947Z,4.30
2019-04-27T04:21:03.528Z,5.92
2019-04-27T04:23:30.203Z,5.42
2019-04-27T04:25:59.508Z,5.22
2019-04-27T04:28:25.197Z,4.65
2019-04-27T04:30:51.798Z,5.70
2019-04-27T04:33:20.581Z,5.28
2019-04-27T04:35:46.693Z,5.17
2019-04-27T04:38:13.264Z,5.10
2019-04-27T04:40:40.215Z,5.45
2019-04-27T04:43:06.917Z,5.55
2019-04-27T04:45:33.520Z,4.33
2019-04-27T04:48:00.112Z,4.12
2019-04-27T04:50:26.827Z,5.12
2019-04-27T04:52:53.404Z,5.30
2019-04-27T04:55:20.562Z,6.20
2019-04-27T04:57:49.348Z,6.00
2019-04-27T05:00:15.615Z,4.80
2019-04-27T05:02:42.270Z,4.87
2019-04-27T05:05:09.391Z,6.47
2019-04-27T05:07:36.131Z,5.15
2019-04-27T05:10:02.714Z,6.20
2019-04-27T05:12:29.337Z,4.47
2019-04-27T05:14:55.946Z,4.10
2019-04-27T05:17:22.523Z,4.12
2019-04-27T05:19:49.224Z,4.28
2019-04-27T05:22:15.781Z,5.72
2019-04-27T05:24:42.403Z,4.90
2019-04-27T05:27:09.301Z,4.92
2019-04-27T05:29:36.027Z,4.60
2019-04-27T05:32:02.641Z,5.37
2019-04-27T05:34:29.533Z,4.08
2019-04-27T05:36:56.305Z,3.95
2019-04-27T05:39:25.060Z,4.28
2019-04-27T05:41:51.192Z,5.05
2019-04-27T05:44:19.061Z,4.00
2019-04-27T05:46:46.093Z,4.33
2019-04-27T05:49:12.668Z,4.90
2019-04-27T05:51:41.778Z,5.08
2019-04-27T05:54:09.072Z,3.95
2019-04-27T05:56:35.835Z,4.67
2019-04-27T05:59:02.413Z,4.25
2019-04-27T06:01:29.681Z,4.42
2019-04-27T06:03:56.384Z,3.22
2019-04-27T06:06:23.002Z,4.05
2019-04-27T06:08:49.629Z,4.03
2019-04-27T06:11:16.262Z,3.77
2019-04-27T06:13:42.828Z,4.60
2019-04-27T06:16:09.596Z,6.08
2019-04-27T06:18:36.136Z,4.58
2019-04-27T06:21:02.731Z,4.30
2019-04-27T06:23:29.307Z,3.52
2019-04-27T06:25:55.903Z,3.98
2019-04-27T06:28:22.472Z,4.40
2019-04-27T06:30:49.267Z,4.45
2019-04-27T06:33:28.026Z,5.15
2019-04-27T06:35:44.246Z,4.95
2019-04-27T06:38:11.597Z,5.85
2019-04-27T06:40:39.157Z,5.25
2019-04-27T06:43:05.885Z,5.03
2019-04-27T06:45:32.454Z,5.65
2019-04-27T06:47:59.557Z,5.83
2019-04-27T06:50:26.333Z,6.08
2019-04-27T06:52:52.944Z,6.05
2019-04-27T06:55:19.530Z,6.12
2019-04-27T06:57:46.126Z,6.50
2019-04-27T07:00:12.709Z,6.35
2019-04-27T07:02:40.340Z,6.45
2019-04-27T07:05:08.815Z,7.28
2019-04-27T07:07:35.273Z,6.05
2019-04-27T07:10:01.845Z,8.00
2019-04-27T07:12:28.939Z,8.05
2019-04-27T07:14:55.675Z,7.17
2019-04-27T07:17:22.276Z,8.43
2019-04-27T07:19:49.710Z,7.53
2019-04-27T07:22:16.439Z,8.63
2019-04-27T07:24:43.013Z,7.75
2019-04-27T07:27:11.177Z,8.30
2019-04-27T07:29:39.148Z,8.38
2019-04-27T07:32:06.077Z,8.83
2019-04-27T07:34:32.652Z,9.78
2019-04-27T07:36:59.877Z,9.23
2019-04-27T07:39:26.520Z,9.08
2019-04-27T07:41:53.120Z,10.50
2019-04-27T07:44:19.692Z,9.63
2019-04-27T07:46:46.312Z,8.90
2019-04-27T07:49:12.878Z,9.33
2019-04-27T07:51:39.494Z,9.68
2019-04-27T07:54:06.077Z,8.38
2019-04-27T07:56:32.694Z,10.93
2019-04-27T07:58:59.621Z,9.53
2019-04-27T08:01:26.335Z,9.70
2019-04-27T08:03:52.955Z,9.30
2019-04-27T08:06:19.537Z,10.93
2019-04-27T08:08:46.125Z,11.48
2019-04-27T08:11:12.700Z,10.75
2019-04-27T08:13:39.465Z,10.15
2019-04-27T08:16:06.163Z,11.05
2019-04-27T08:18:32.768Z,11.60
2019-04-27T08:20:59.337Z,10.00
2019-04-27T08:23:25.977Z,10.70
2019-04-27T08:25:52.540Z,13.45
2019-04-27T08:28:19.152Z,10.82
2019-04-27T08:30:45.729Z,12.78
2019-04-27T08:33:12.347Z,11.55
2019-04-27T08:35:40.588Z,11.22
2019-04-27T08:38:09.015Z,11.85
2019-04-27T08:40:35.778Z,12.13
2019-04-27T08:43:02.399Z,10.80
2019-04-27T08:45:29.327Z,12.03
2019-04-27T08:47:56.055Z,11.00
2019-04-27T08:50:22.642Z,11.45
2019-04-27T08:52:50.198Z,11.35
2019-04-27T08:55:17.011Z,11.60
2019-04-27T08:57:43.607Z,11.97
2019-04-27T09:00:10.184Z,12.28
2019-04-27T09:02:44.452Z,10.90
2019-04-27T09:05:05.106Z,13.25
2019-04-27T09:07:31.912Z,13.05
2019-04-27T09:09:59.620Z,11.93
2019-04-27T09:12:26.395Z,11.33
2019-04-27T09:14:52.992Z,10.90
2019-04-27T09:17:19.654Z,10.85
2019-04-27T09:19:46.270Z,10.75
2019-04-27T09:22:16.413Z,11.83
2019-04-27T09:24:42.273Z,11.43
2019-04-27T09:27:09.617Z,10.98
2019-04-27T09:29:36.422Z,12.40
2019-04-27T09:32:03.002Z,11.43
2019-04-27T09:34:29.616Z,10.32
2019-04-27T09:36:56.642Z,11.45
2019-04-27T09:39:23.369Z,11.85
2019-04-27T09:41:49.963Z,9.80
2019-04-27T09:44:16.570Z,11.57
2019-04-27T09:46:43.159Z,11.15
2019-04-27T09:49:12.064Z,11.35
2019-04-27T09:51:38.103Z,10.58
2019-04-27T09:54:05.858Z,10.85
2019-04-27T09:56:32.475Z,9.73
2019-04-27T09:58:59.087Z,11.55
2019-04-27T10:01:26.491Z,10.93
2019-04-27T10:03:54.003Z,10.65
2019-04-27T10:06:20.577Z,9.83
2019-04-27T10:08:47.173Z,9.78
2019-04-27T10:11:13.746Z,11.25
2019-04-27T10:13:40.355Z,9.75
2019-04-27T10:16:06.934Z,9.75
2019-04-27T10:18:33.510Z,9.55
2019-04-27T10:21:02.233Z,10.70
2019-04-27T10:23:28.498Z,11.38
2019-04-27T10:25:56.322Z,11.33
2019-04-27T10:28:22.925Z,11.53
2019-04-27T10:30:49.540Z,11.40
2019-04-27T10:33:16.227Z,11.38
2019-04-27T10:35:42.819Z,10.93
2019-04-27T10:38:09.385Z,11.68
2019-04-27T10:40:36.002Z,12.23
2019-04-27T10:43:02.597Z,12.58
2019-04-27T10:45:29.205Z,11.80
2019-04-27T10:47:56.270Z,10.50
2019-04-27T10:50:23.089Z,10.78
2019-04-27T10:52:53.568Z,12.43
2019-04-27T10:55:18.062Z,10.40
2019-04-27T10:57:44.636Z,10.98
2019-04-27T11:00:11.256Z,11.38
2019-04-27T11:02:37.840Z,11.20
2019-04-27T11:05:04.461Z,11.65
2019-04-27T11:07:31.051Z,11.00
2019-04-27T11:09:57.660Z,12.33
2019-04-27T11:12:24.240Z,11.83
2019-04-27T11:14:50.852Z,10.85
2019-04-27T11:17:17.426Z,12.80
2019-04-27T11:19:45.927Z,11.55
2019-04-27T11:22:12.494Z,10.65
2019-04-27T11:24:39.115Z,11.33
2019-04-27T11:27:05.888Z,11.22
2019-04-27T11:29:32.695Z,11.25
2019-04-27T11:31:59.324Z,10.30
2019-04-27T11:34:25.926Z,11.75
2019-04-27T11:36:52.510Z,10.58
2019-04-27T11:39:21.141Z,10.58
2019-04-27T11:41:47.421Z,11.25
2019-04-27T11:46:59.475Z,9.28
2019-04-27T11:49:26.091Z,11.08
2019-04-27T11:51:52.660Z,10.60
2019-04-27T11:54:19.235Z,10.32
2019-04-27T11:56:47.210Z,12.53
2019-04-27T11:59:14.014Z,11.12
2019-04-27T12:01:42.204Z,10.08
2019-04-27T12:04:08.778Z,12.53
2019-04-27T12:06:35.854Z,11.43
2019-04-27T12:09:02.541Z,12.33
2019-04-27T12:11:29.156Z,12.05
2019-04-27T12:13:56.256Z,12.65
2019-04-27T12:16:22.936Z,12.35
2019-04-27T12:18:49.513Z,10.80
2019-04-27T12:21:16.137Z,10.25
2019-04-27T12:23:42.703Z,11.12
2019-04-27T12:26:09.328Z,9.65
2019-04-27T12:28:35.907Z,9.08
2019-04-27T12:31:02.496Z,8.78
2019-04-27T12:33:29.070Z,12.15
2019-04-27T12:35:56.922Z,9.68
2019-04-27T12:38:23.651Z,9.68
2019-04-27T12:40:50.261Z,9.73
2019-04-27T12:43:16.840Z,9.73
2019-04-27T12:45:43.715Z,10.63
2019-04-27T12:48:11.029Z,10.15
2019-04-27T12:50:37.644Z,10.60
2019-04-27T12:53:04.214Z,10.25
2019-04-27T12:55:30.827Z,10.40
2019-04-27T12:57:57.415Z,10.43
2019-04-27T13:00:23.986Z,11.30
2019-04-27T13:02:50.585Z,11.50
2019-04-27T13:05:17.152Z,10.63
2019-04-27T13:07:43.752Z,11.95
2019-04-27T13:10:10.325Z,10.18
2019-04-27T13:12:36.928Z,10.55
2019-04-27T13:15:03.500Z,10.58
2019-04-27T13:17:30.103Z,12.73
2019-04-27T13:19:56.679Z,11.43
2019-04-27T13:22:23.291Z,10.85
2019-04-27T13:24:49.874Z,9.93
2019-04-27T13:27:16.728Z,9.25
2019-04-27T13:29:43.346Z,11.80
2019-04-27T13:32:09.958Z,11.60
2019-04-27T13:34:38.303Z,11.55
2019-04-27T13:37:05.039Z,11.68
2019-04-27T13:39:31.609Z,11.60
2019-04-27T13:41:58.203Z,13.53
2019-04-27T13:44:26.226Z,13.08
2019-04-27T13:46:52.993Z,12.05
2019-04-27T13:49:19.567Z,14.18
2019-04-27T13:51:46.183Z,12.18
2019-04-27T13:54:18.777Z,12.53
2019-04-27T13:56:41.111Z,11.48
2019-04-27T13:59:07.937Z,11.85
2019-04-27T14:01:34.534Z,12.15
2019-04-27T14:04:01.126Z,10.90
2019-04-27T14:06:27.717Z,11.90
2019-04-27T14:08:54.392Z,13.88
2019-04-27T14:11:20.973Z,12.50
2019-04-27T14:13:48.452Z,13.68
2019-04-27T14:16:15.242Z,15.28
2019-04-27T14:18:41.877Z,12.85
2019-04-27T14:21:09.443Z,12.73
2019-04-27T14:23:36.105Z,15.30
2019-04-27T14:26:02.674Z,14.03
2019-04-27T14:28:29.335Z,13.60
2019-04-27T14:30:56.054Z,17.00
2019-04-27T14:33:22.643Z,15.45
2019-04-27T14:35:49.980Z,13.05
2019-04-27T14:38:16.713Z,12.35
2019-04-27T14:40:43.293Z,17.52
2019-04-27T14:43:09.902Z,16.15
2019-04-27T14:45:38.303Z,15.70
2019-04-27T14:48:04.826Z,15.25
2019-04-27T14:50:31.413Z,17.00
2019-04-27T14:52:59.026Z,15.75
2019-04-27T14:55:25.788Z,19.50
2019-04-27T14:57:52.393Z,17.02
2019-04-27T15:00:19.273Z,17.62
2019-04-27T15:02:45.903Z,17.05
2019-04-27T15:05:12.480Z,16.45
2019-04-27T15:07:39.097Z,18.20
2019-04-27T15:10:05.667Z,16.35
2019-04-27T15:12:32.475Z,17.23
2019-04-27T15:15:01.224Z,19.30
2019-04-27T15:17:27.417Z,16.35
2019-04-27T15:19:54.007Z,16.90
2019-04-27T15:22:22.660Z,18.35
2019-04-27T15:25:07.796Z,16.65
2019-04-27T15:27:17.276Z,13.35
2019-04-27T15:29:43.896Z,17.65
2019-04-27T15:32:12.352Z,18.87
2019-04-27T15:34:40.048Z,16.17
2019-04-27T15:37:07.959Z,15.65
2019-04-27T15:39:34.721Z,13.28
2019-04-27T15:42:07.888Z,14.83
2019-04-27T15:44:29.624Z,12.82
2019-04-27T15:46:57.917Z,14.10
2019-04-27T15:49:24.700Z,11.28
2019-04-27T15:51:54.751Z,11.95
2019-04-27T15:54:22.359Z,13.08
2019-04-27T15:56:47.920Z,11.20
2019-04-27T15:59:14.519Z,11.73
2019-04-27T16:01:41.098Z,13.60
2019-04-27T16:04:11.177Z,13.32
2019-04-27T16:06:35.995Z,12.55
2019-04-27T16:09:02.855Z,13.83
2019-04-27T16:11:29.434Z,13.80
2019-04-27T16:13:56.044Z,16.62
2019-04-27T16:16:24.469Z,16.05
2019-04-27T16:18:51.033Z,12.63
2019-04-27T16:21:17.870Z,14.65
2019-04-27T16:23:45.934Z,14.70
2019-04-27T16:26:15.035Z,12.58
2019-04-27T16:28:43.076Z,13.15
2019-04-27T16:31:09.145Z,12.28
2019-04-27T16:33:35.724Z,11.48
2019-04-27T16:36:06.848Z,11.53
2019-04-27T16:38:33.650Z,10.43
2019-04-27T16:41:03.057Z,11.63
2019-04-27T16:43:30.226Z,12.63
2019-04-27T16:45:57.907Z,10.88
2019-04-27T16:48:28.013Z,11.65
2019-04-27T16:50:55.142Z,14.93
2019-04-27T16:53:20.580Z,11.60
2019-04-27T16:55:59.548Z,11.83
2019-04-27T16:58:17.771Z,13.15
2019-04-27T17:00:43.967Z,12.40
2019-04-27T17:03:10.545Z,13.55
2019-04-27T17:05:38.025Z,11.57
2019-04-27T17:08:04.812Z,12.68
2019-04-27T17:10:31.500Z,12.05
2019-04-27T17:12:59.121Z,11.65
2019-04-27T17:15:25.961Z,9.18
2019-04-27T17:17:52.518Z,9.78
2019-04-27T17:20:21.200Z,11.12
2019-04-27T17:22:50.205Z,10.23
2019-04-27T17:25:20.037Z,11.30
2019-04-27T17:27:44.046Z,12.37
2019-04-27T17:30:10.658Z,12.13
2019-04-27T17:32:38.846Z,12.75
2019-04-27T17:35:08.748Z,11.57
2019-04-27T17:37:34.031Z,11.22
2019-04-27T17:40:00.942Z,12.93
2019-04-27T17:42:30.634Z,11.25
2019-04-27T17:44:57.678Z,12.00
2019-04-27T17:47:26.598Z,11.10
2019-04-27T17:49:52.629Z,11.22
2019-04-27T17:52:19.239Z,12.37
2019-04-27T17:54:47.363Z,11.12
2019-04-27T17:57:14.136Z,12.25
2019-04-27T17:59:40.723Z,11.78
2019-04-27T18:02:08.886Z,10.32
2019-04-27T18:04:37.656Z,9.98
2019-04-27T18:07:03.966Z,12.00
2019-04-27T18:09:33.502Z,11.68
2019-04-27T18:11:58.886Z,13.50
2019-04-27T18:14:25.458Z,12.58
2019-04-27T18:16:52.068Z,14.90
2019-04-27T18:19:18.650Z,12.80
2019-04-27T18:21:45.283Z,13.48
2019-04-27T18:24:11.850Z,12.73
2019-04-27T18:26:48.812Z,13.00
2019-04-27T18:29:08.154Z,13.48
2019-04-27T18:31:34.834Z,15.03
2019-04-27T18:34:01.421Z,14.78
2019-04-27T18:36:29.504Z,14.35
2019-04-27T18:38:56.184Z,14.15
2019-04-27T18:41:22.803Z,13.22
2019-04-27T18:43:52.206Z,13.90
2019-04-27T18:46:21.964Z,14.43
2019-04-27T18:48:50.242Z,13.05
2019-04-27T18:51:14.353Z,13.60
2019-04-27T18:53:40.945Z,14.03
2019-04-27T18:56:08.069Z,14.58
2019-04-27T18:58:36.008Z,13.80
2019-04-27T19:01:02.591Z,14.55
2019-04-27T19:03:31.579Z,15.18
2019-04-27T19:05:58.242Z,14.85
2019-04-27T19:08:24.888Z,14.73
2019-04-27T19:10:51.461Z,15.53
2019-04-27T19:13:19.174Z,14.15
2019-04-27T19:15:46.014Z,14.33
2019-04-27T19:18:12.628Z,16.20
2019-04-27T19:20:39.212Z,15.23
2019-04-27T19:23:05.801Z,16.30
2019-04-27T19:25:32.373Z,17.40
2019-04-27T19:27:58.978Z,16.65
2019-04-27T19:30:25.547Z,15.00
2019-04-27T19:32:52.165Z,17.95
2019-04-27T19:35:19.999Z,14.65
2019-04-27T19:37:48.553Z,16.45
2019-04-27T19:40:15.072Z,15.53
2019-04-27T19:42:41.668Z,14.47
2019-04-27T19:45:08.246Z,15.38
2019-04-27T19:47:34.862Z,15.38
2019-04-27T19:50:01.452Z,13.18
2019-04-27T19:52:28.281Z,15.10
2019-04-27T19:54:54.889Z,15.95
2019-04-27T19:57:31.787Z,13.65
2019-04-27T19:59:49.790Z,13.62
2019-04-27T20:02:16.410Z,11.83
2019-04-27T20:04:43.023Z,14.20
2019-04-27T20:07:10.641Z,14.18
2019-04-27T20:09:37.370Z,14.28
2019-04-27T20:12:05.272Z,22.37
2019-04-27T20:14:32.298Z,29.80
2019-04-27T20:16:58.867Z,13.70
2019-04-27T20:19:25.483Z,9.70
2019-04-27T20:21:52.056Z,8.80
2019-04-27T20:24:18.658Z,10.15
2019-04-27T20:26:45.238Z,9.45
2019-04-27T20:29:11.961Z,8.43
2019-04-27T20:31:38.581Z,7.75
2019-04-27T20:34:05.205Z,7.33
2019-04-27T20:36:31.776Z,7.37
2019-04-27T20:38:58.380Z,7.15
2019-04-27T20:41:24.954Z,7.15
2019-04-27T20:43:51.547Z,6.87
2019-04-27T20:46:18.594Z,7.47
2019-04-27T20:48:45.407Z,7.62
2019-04-27T20:51:12.037Z,6.10
2019-04-27T20:53:38.639Z,7.22
2019-04-27T20:56:05.218Z,11.65
2019-04-27T20:58:31.833Z,13.50
2019-04-27T21:00:58.406Z,23.40
2019-04-27T21:03:25.118Z,9.15
2019-04-27T21:05:51.696Z,7.87
2019-04-27T21:08:18.311Z,10.55
2019-04-27T21:10:44.884Z,7.17
2019-04-27T21:13:11.461Z,7.65
2019-04-27T21:15:38.054Z,6.50
2019-04-27T21:18:04.627Z,9.63
2019-04-27T21:20:31.252Z,8.48
2019-04-27T21:22:57.870Z,7.97
2019-04-27T21:25:24.486Z,12.37
2019-04-27T21:27:51.401Z,58.68
2019-04-27T21:30:18.048Z,22.48
2019-04-27T21:32:44.616Z,23.52
2019-04-27T21:35:11.225Z,28.60
2019-04-27T21:37:37.800Z,9.18
2019-04-27T21:40:04.413Z,6.55
2019-04-27T21:42:31.004Z,7.00
2019-04-27T21:44:57.622Z,8.15
2019-04-27T21:47:24.190Z,8.55
2019-04-27T21:49:51.767Z,9.03
2019-04-27T21:52:18.570Z,8.00
2019-04-27T21:54:45.180Z,7.53
2019-04-27T21:57:12.760Z,13.53
2019-04-27T21:59:39.751Z,12.60
2019-04-27T22:02:06.386Z,9.90
2019-04-27T22:04:32.993Z,10.93
2019-04-27T22:07:01.249Z,24.43
2019-04-27T22:09:28.084Z,24.07
2019-04-27T22:11:54.654Z,14.75
2019-04-27T22:14:22.428Z,27.05
2019-04-27T22:16:49.001Z,13.00
2019-04-27T22:19:15.609Z,17.90
2019-04-27T22:21:42.210Z,9.83
2019-04-27T22:24:08.887Z,14.23
2019-04-27T22:26:35.527Z,19.60
2019-04-27T22:29:02.123Z,14.25
2019-04-27T22:31:28.723Z,9.40
2019-04-27T22:33:55.351Z,13.43
2019-04-27T22:36:21.964Z,16.20
2019-04-27T22:38:48.539Z,11.73
2019-04-27T22:41:15.149Z,19.80
2019-04-27T22:43:41.750Z,14.43
2019-04-27T22:46:08.430Z,12.35
2019-04-27T22:48:35.002Z,19.35
2019-04-27T22:51:01.695Z,12.95
2019-04-27T22:53:28.276Z,12.80
2019-04-27T22:55:55.059Z,12.30
2019-04-27T22:58:21.838Z,12.45
2019-04-27T23:00:48.435Z,15.72
2019-04-27T23:03:15.061Z,12.37
2019-04-27T23:05:42.986Z,14.63
2019-04-27T23:08:09.734Z,14.70
2019-04-27T23:10:36.361Z,16.90
2019-04-27T23:13:02.936Z,20.15
2019-04-27T23:15:30.636Z,14.35
2019-04-27T23:17:57.844Z,20.82
2019-04-27T23:20:24.419Z,15.25
2019-04-27T23:22:51.030Z,14.65
2019-04-27T23:25:17.645Z,16.48
2019-04-27T23:27:44.287Z,17.10
2019-04-27T23:30:11.369Z,18.55
2019-04-27T23:32:38.152Z,17.30
2019-04-27T23:35:04.732Z,33.70
2019-04-27T23:37:31.335Z,17.17
2019-04-27T23:39:57.913Z,15.72
2019-04-27T23:42:24.531Z,13.30
2019-04-27T23:44:51.099Z,14.98
2019-04-27T23:47:17.726Z,13.70
2019-04-27T23:49:44.308Z,13.95
2019-04-27T23:52:10.925Z,13.32
2019-04-27T23:54:37.505Z,15.90
2019-04-27T23:57:04.123Z,15.40
2019-04-27T23:59:31.374Z,29.95
